sensor_id;sensor_type;location;lat;lon;timestamp;P1;durP1;ratioP1;P2;durP2;ratioP2
4766;SDS011;2397;53.576;9.746;2022-08-19T00:01:46;8.43;;;7.63;;
4766;SDS011;2397;53.576;9.746;2022-08-19T00:04:12;9.33;;;8.53;;
4766;SDS011;2397;53.576;9.746;2022-08-19T00:06:39;8.80;;;8.10;;
4766;SDS011;2397;53.576;9.746;2022-08-19T00:09:06;13.60;;;9.27;;
4766;SDS011;2397;53.576;9.746;2022-08-19T00:11:31;10.23;;;8.40;;
4766;SDS011;2397;53.576;9.746;2022-08-19T00:13:57;10.27;;;8.43;;
4766;SDS011;2397;53.576;9.746;2022-08-19T00:16:22;11.93;;;10.40;;
4766;SDS011;2397;53.576;9.746;2022-08-19T00:18:48;10.90;;;9.80;;
4766;SDS011;2397;53.576;9.746;2022-08-19T00:21:13;13.90;;;8.40;;
4766;SDS011;2397;53.576;9.746;2022-08-19T00:23:39;11.13;;;10.13;;
4766;SDS011;2397;53.576;9.746;2022-08-19T00:26:04;12.88;;;9.70;;
4766;SDS011;2397;53.576;9.746;2022-08-19T00:28:30;11.50;;;10.27;;
4766;SDS011;2397;53.576;9.746;2022-08-19T00:30:55;12.00;;;10.83;;
4766;SDS011;2397;53.576;9.746;2022-08-19T00:33:20;12.47;;;9.60;;
4766;SDS011;2397;53.576;9.746;2022-08-19T00:35:46;14.70;;;11.67;;
4766;SDS011;2397;53.576;9.746;2022-08-19T00:38:11;15.30;;;11.40;;
4766;SDS011;2397;53.576;9.746;2022-08-19T00:40:36;11.60;;;10.40;;
4766;SDS011;2397;53.576;9.746;2022-08-19T00:43:07;11.20;;;10.20;;
4766;SDS011;2397;53.576;9.746;2022-08-19T00:45:32;14.73;;;11.97;;
4766;SDS011;2397;53.576;9.746;2022-08-19T00:47:57;12.97;;;10.90;;
4766;SDS011;2397;53.576;9.746;2022-08-19T00:50:23;14.57;;;13.07;;
4766;SDS011;2397;53.576;9.746;2022-08-19T00:52:49;19.00;;;14.83;;
4766;SDS011;2397;53.576;9.746;2022-08-19T00:55:19;19.87;;;14.57;;
4766;SDS011;2397;53.576;9.746;2022-08-19T00:57:50;14.40;;;12.90;;
4766;SDS011;2397;53.576;9.746;2022-08-19T01:00:17;18.57;;;15.27;;
4766;SDS011;2397;53.576;9.746;2022-08-19T01:02:42;15.17;;;13.67;;
4766;SDS011;2397;53.576;9.746;2022-08-19T01:05:09;18.30;;;16.30;;
4766;SDS011;2397;53.576;9.746;2022-08-19T01:07:35;17.17;;;15.30;;
4766;SDS011;2397;53.576;9.746;2022-08-19T01:10:03;22.63;;;17.33;;
4766;SDS011;2397;53.576;9.746;2022-08-19T01:12:28;20.80;;;17.60;;
4766;SDS011;2397;53.576;9.746;2022-08-19T01:14:53;23.47;;;17.77;;
4766;SDS011;2397;53.576;9.746;2022-08-19T01:17:19;25.07;;;17.53;;
4766;SDS011;2397;53.576;9.746;2022-08-19T01:19:45;20.13;;;16.47;;
4766;SDS011;2397;53.576;9.746;2022-08-19T01:22:16;24.43;;;17.20;;
4766;SDS011;2397;53.576;9.746;2022-08-19T01:24:43;20.37;;;15.57;;
4766;SDS011;2397;53.576;9.746;2022-08-19T01:27:09;21.17;;;16.57;;
4766;SDS011;2397;53.576;9.746;2022-08-19T01:29:34;21.90;;;17.20;;
4766;SDS011;2397;53.576;9.746;2022-08-19T01:32:01;21.47;;;18.23;;
4766;SDS011;2397;53.576;9.746;2022-08-19T01:34:27;20.73;;;18.20;;
4766;SDS011;2397;53.576;9.746;2022-08-19T01:36:52;23.17;;;18.10;;
4766;SDS011;2397;53.576;9.746;2022-08-19T01:39:21;23.67;;;18.57;;
4766;SDS011;2397;53.576;9.746;2022-08-19T01:41:47;19.80;;;16.97;;
4766;SDS011;2397;53.576;9.746;2022-08-19T01:44:12;22.53;;;17.30;;
4766;SDS011;2397;53.576;9.746;2022-08-19T01:46:38;26.00;;;19.60;;
4766;SDS011;2397;53.576;9.746;2022-08-19T01:49:03;26.00;;;18.77;;
4766;SDS011;2397;53.576;9.746;2022-08-19T01:51:29;24.73;;;18.70;;
4766;SDS011;2397;53.576;9.746;2022-08-19T01:53:55;20.13;;;17.60;;
4766;SDS011;2397;53.576;9.746;2022-08-19T01:56:21;23.87;;;17.60;;
4766;SDS011;2397;53.576;9.746;2022-08-19T01:58:49;29.73;;;19.10;;
4766;SDS011;2397;53.576;9.746;2022-08-19T02:01:15;37.03;;;21.03;;
4766;SDS011;2397;53.576;9.746;2022-08-19T02:03:41;27.53;;;18.30;;
4766;SDS011;2397;53.576;9.746;2022-08-19T02:06:06;32.00;;;20.33;;
4766;SDS011;2397;53.576;9.746;2022-08-19T02:08:32;29.00;;;19.00;;
4766;SDS011;2397;53.576;9.746;2022-08-19T02:10:58;39.17;;;23.47;;
4766;SDS011;2397;53.576;9.746;2022-08-19T02:13:24;38.53;;;23.43;;
4766;SDS011;2397;53.576;9.746;2022-08-19T02:15:49;37.53;;;22.43;;
4766;SDS011;2397;53.576;9.746;2022-08-19T02:18:14;31.93;;;20.80;;
4766;SDS011;2397;53.576;9.746;2022-08-19T02:20:40;31.90;;;21.57;;
4766;SDS011;2397;53.576;9.746;2022-08-19T02:23:05;32.43;;;20.57;;
4766;SDS011;2397;53.576;9.746;2022-08-19T02:25:31;32.30;;;20.20;;
4766;SDS011;2397;53.576;9.746;2022-08-19T02:27:56;31.00;;;18.33;;
4766;SDS011;2397;53.576;9.746;2022-08-19T02:30:21;40.28;;;19.05;;
4766;SDS011;2397;53.576;9.746;2022-08-19T02:32:47;32.00;;;20.33;;
4766;SDS011;2397;53.576;9.746;2022-08-19T02:35:12;30.53;;;18.60;;
4766;SDS011;2397;53.576;9.746;2022-08-19T02:37:38;37.07;;;20.60;;
4766;SDS011;2397;53.576;9.746;2022-08-19T02:40:22;27.50;;;19.50;;
4766;SDS011;2397;53.576;9.746;2022-08-19T02:42:47;38.93;;;21.53;;
4766;SDS011;2397;53.576;9.746;2022-08-19T02:45:13;30.03;;;20.87;;
4766;SDS011;2397;53.576;9.746;2022-08-19T02:47:38;33.90;;;22.20;;
4766;SDS011;2397;53.576;9.746;2022-08-19T02:50:04;31.60;;;19.60;;
4766;SDS011;2397;53.576;9.746;2022-08-19T02:52:29;42.53;;;20.90;;
4766;SDS011;2397;53.576;9.746;2022-08-19T02:54:54;38.97;;;22.73;;
4766;SDS011;2397;53.576;9.746;2022-08-19T02:57:22;33.10;;;22.90;;
4766;SDS011;2397;53.576;9.746;2022-08-19T02:59:47;32.47;;;22.03;;
4766;SDS011;2397;53.576;9.746;2022-08-19T03:02:12;37.73;;;21.93;;
4766;SDS011;2397;53.576;9.746;2022-08-19T03:04:38;36.37;;;20.13;;
4766;SDS011;2397;53.576;9.746;2022-08-19T03:07:03;33.47;;;21.70;;
4766;SDS011;2397;53.576;9.746;2022-08-19T03:09:28;29.50;;;20.80;;
4766;SDS011;2397;53.576;9.746;2022-08-19T03:11:54;30.90;;;18.97;;
4766;SDS011;2397;53.576;9.746;2022-08-19T03:14:20;32.43;;;18.80;;
4766;SDS011;2397;53.576;9.746;2022-08-19T03:16:46;26.70;;;18.03;;
4766;SDS011;2397;53.576;9.746;2022-08-19T03:19:12;26.90;;;18.23;;
4766;SDS011;2397;53.576;9.746;2022-08-19T03:21:37;21.70;;;16.10;;
4766;SDS011;2397;53.576;9.746;2022-08-19T03:24:04;22.85;;;16.67;;
4766;SDS011;2397;53.576;9.746;2022-08-19T03:26:30;19.93;;;16.40;;
4766;SDS011;2397;53.576;9.746;2022-08-19T03:28:56;21.67;;;16.37;;
4766;SDS011;2397;53.576;9.746;2022-08-19T03:31:22;22.07;;;16.20;;
4766;SDS011;2397;53.576;9.746;2022-08-19T03:33:50;23.40;;;16.67;;
4766;SDS011;2397;53.576;9.746;2022-08-19T03:36:16;30.80;;;18.67;;
4766;SDS011;2397;53.576;9.746;2022-08-19T03:38:46;24.03;;;18.47;;
4766;SDS011;2397;53.576;9.746;2022-08-19T03:41:14;25.50;;;17.57;;
4766;SDS011;2397;53.576;9.746;2022-08-19T03:43:40;24.50;;;17.37;;
4766;SDS011;2397;53.576;9.746;2022-08-19T03:46:07;35.90;;;20.67;;
4766;SDS011;2397;53.576;9.746;2022-08-19T03:48:33;24.20;;;17.87;;
4766;SDS011;2397;53.576;9.746;2022-08-19T03:50:58;23.93;;;15.53;;
4766;SDS011;2397;53.576;9.746;2022-08-19T03:53:24;25.07;;;16.80;;
4766;SDS011;2397;53.576;9.746;2022-08-19T03:55:50;20.47;;;14.73;;
4766;SDS011;2397;53.576;9.746;2022-08-19T03:58:16;21.57;;;13.90;;
4766;SDS011;2397;53.576;9.746;2022-08-19T04:00:42;19.60;;;14.52;;
4766;SDS011;2397;53.576;9.746;2022-08-19T04:03:07;25.93;;;13.70;;
4766;SDS011;2397;53.576;9.746;2022-08-19T04:05:32;23.10;;;15.10;;
4766;SDS011;2397;53.576;9.746;2022-08-19T04:07:58;24.63;;;15.27;;
4766;SDS011;2397;53.576;9.746;2022-08-19T04:10:23;25.47;;;15.50;;
4766;SDS011;2397;53.576;9.746;2022-08-19T04:12:49;21.73;;;15.50;;
4766;SDS011;2397;53.576;9.746;2022-08-19T04:15:14;19.17;;;14.87;;
4766;SDS011;2397;53.576;9.746;2022-08-19T04:17:40;23.83;;;15.90;;
4766;SDS011;2397;53.576;9.746;2022-08-19T04:20:05;25.27;;;16.00;;
4766;SDS011;2397;53.576;9.746;2022-08-19T04:22:30;25.80;;;15.90;;
4766;SDS011;2397;53.576;9.746;2022-08-19T04:24:56;22.00;;;15.60;;
4766;SDS011;2397;53.576;9.746;2022-08-19T04:27:21;20.13;;;14.30;;
4766;SDS011;2397;53.576;9.746;2022-08-19T04:29:46;18.88;;;14.73;;
4766;SDS011;2397;53.576;9.746;2022-08-19T04:32:12;23.83;;;16.87;;
4766;SDS011;2397;53.576;9.746;2022-08-19T04:34:40;23.30;;;15.00;;
4766;SDS011;2397;53.576;9.746;2022-08-19T04:37:05;18.48;;;14.00;;
4766;SDS011;2397;53.576;9.746;2022-08-19T04:39:36;23.83;;;15.27;;
4766;SDS011;2397;53.576;9.746;2022-08-19T04:42:20;27.83;;;14.17;;
4766;SDS011;2397;53.576;9.746;2022-08-19T04:45:05;22.30;;;14.40;;
4766;SDS011;2397;53.576;9.746;2022-08-19T04:47:31;17.03;;;13.47;;
4766;SDS011;2397;53.576;9.746;2022-08-19T04:49:57;17.90;;;13.47;;
4766;SDS011;2397;53.576;9.746;2022-08-19T04:52:22;18.57;;;12.90;;
4766;SDS011;2397;53.576;9.746;2022-08-19T04:54:47;17.70;;;13.23;;
4766;SDS011;2397;53.576;9.746;2022-08-19T04:57:13;18.90;;;12.10;;
4766;SDS011;2397;53.576;9.746;2022-08-19T04:59:38;19.70;;;11.43;;
4766;SDS011;2397;53.576;9.746;2022-08-19T05:02:04;15.70;;;13.17;;
4766;SDS011;2397;53.576;9.746;2022-08-19T05:04:30;23.53;;;12.80;;
4766;SDS011;2397;53.576;9.746;2022-08-19T05:06:56;18.50;;;12.07;;
4766;SDS011;2397;53.576;9.746;2022-08-19T05:09:21;13.93;;;11.17;;
4766;SDS011;2397;53.576;9.746;2022-08-19T05:11:48;24.93;;;11.03;;
4766;SDS011;2397;53.576;9.746;2022-08-19T05:14:15;15.10;;;10.90;;
4766;SDS011;2397;53.576;9.746;2022-08-19T05:16:41;17.07;;;11.90;;
4766;SDS011;2397;53.576;9.746;2022-08-19T05:19:06;20.80;;;11.60;;
4766;SDS011;2397;53.576;9.746;2022-08-19T05:21:50;16.73;;;10.60;;
4766;SDS011;2397;53.576;9.746;2022-08-19T05:24:33;15.40;;;10.57;;
4766;SDS011;2397;53.576;9.746;2022-08-19T05:26:59;20.33;;;11.00;;
4766;SDS011;2397;53.576;9.746;2022-08-19T05:29:26;15.00;;;11.83;;
4766;SDS011;2397;53.576;9.746;2022-08-19T05:31:52;16.90;;;11.53;;
4766;SDS011;2397;53.576;9.746;2022-08-19T05:34:17;15.90;;;10.10;;
4766;SDS011;2397;53.576;9.746;2022-08-19T05:36:43;13.50;;;9.53;;
4766;SDS011;2397;53.576;9.746;2022-08-19T05:39:10;26.90;;;12.00;;
4766;SDS011;2397;53.576;9.746;2022-08-19T05:41:36;12.53;;;11.00;;
4766;SDS011;2397;53.576;9.746;2022-08-19T05:44:02;11.20;;;9.53;;
4766;SDS011;2397;53.576;9.746;2022-08-19T05:46:28;18.80;;;10.20;;
4766;SDS011;2397;53.576;9.746;2022-08-19T05:48:53;15.73;;;11.73;;
4766;SDS011;2397;53.576;9.746;2022-08-19T05:51:21;15.63;;;12.37;;
4766;SDS011;2397;53.576;9.746;2022-08-19T05:53:50;14.23;;;11.63;;
4766;SDS011;2397;53.576;9.746;2022-08-19T05:56:16;14.90;;;10.70;;
4766;SDS011;2397;53.576;9.746;2022-08-19T05:58:41;13.00;;;10.40;;
4766;SDS011;2397;53.576;9.746;2022-08-19T06:01:12;17.80;;;10.47;;
4766;SDS011;2397;53.576;9.746;2022-08-19T06:03:37;20.07;;;10.77;;
4766;SDS011;2397;53.576;9.746;2022-08-19T06:06:04;10.57;;;9.47;;
4766;SDS011;2397;53.576;9.746;2022-08-19T06:08:30;16.63;;;9.73;;
4766;SDS011;2397;53.576;9.746;2022-08-19T06:10:55;20.43;;;10.13;;
4766;SDS011;2397;53.576;9.746;2022-08-19T06:13:21;15.33;;;8.40;;
4766;SDS011;2397;53.576;9.746;2022-08-19T06:15:47;9.93;;;8.70;;
4766;SDS011;2397;53.576;9.746;2022-08-19T06:18:13;12.70;;;8.87;;
4766;SDS011;2397;53.576;9.746;2022-08-19T06:20:39;8.77;;;7.97;;
4766;SDS011;2397;53.576;9.746;2022-08-19T06:23:04;13.30;;;7.70;;
4766;SDS011;2397;53.576;9.746;2022-08-19T06:25:29;11.33;;;7.00;;
4766;SDS011;2397;53.576;9.746;2022-08-19T06:27:55;13.50;;;8.47;;
4766;SDS011;2397;53.576;9.746;2022-08-19T06:30:20;13.23;;;7.90;;
4766;SDS011;2397;53.576;9.746;2022-08-19T06:32:45;11.07;;;7.70;;
4766;SDS011;2397;53.576;9.746;2022-08-19T06:35:10;8.48;;;7.60;;
4766;SDS011;2397;53.576;9.746;2022-08-19T06:37:36;9.27;;;7.10;;
4766;SDS011;2397;53.576;9.746;2022-08-19T06:40:01;9.20;;;8.40;;
4766;SDS011;2397;53.576;9.746;2022-08-19T06:42:26;8.53;;;7.60;;
4766;SDS011;2397;53.576;9.746;2022-08-19T06:44:52;8.13;;;7.43;;
4766;SDS011;2397;53.576;9.746;2022-08-19T06:47:18;9.70;;;8.60;;
4766;SDS011;2397;53.576;9.746;2022-08-19T06:49:44;7.50;;;6.77;;
4766;SDS011;2397;53.576;9.746;2022-08-19T06:52:09;9.07;;;8.17;;
4766;SDS011;2397;53.576;9.746;2022-08-19T06:54:37;9.03;;;8.10;;
4766;SDS011;2397;53.576;9.746;2022-08-19T06:57:02;9.33;;;7.27;;
4766;SDS011;2397;53.576;9.746;2022-08-19T06:59:28;13.97;;;9.03;;
4766;SDS011;2397;53.576;9.746;2022-08-19T07:01:55;10.00;;;7.60;;
4766;SDS011;2397;53.576;9.746;2022-08-19T07:04:26;11.50;;;8.37;;
4766;SDS011;2397;53.576;9.746;2022-08-19T07:06:59;8.33;;;7.53;;
4766;SDS011;2397;53.576;9.746;2022-08-19T07:09:24;8.67;;;7.23;;
4766;SDS011;2397;53.576;9.746;2022-08-19T07:11:50;7.77;;;6.80;;
4766;SDS011;2397;53.576;9.746;2022-08-19T07:14:18;9.20;;;7.97;;
4766;SDS011;2397;53.576;9.746;2022-08-19T07:16:43;8.50;;;7.60;;
4766;SDS011;2397;53.576;9.746;2022-08-19T07:19:10;12.30;;;8.70;;
4766;SDS011;2397;53.576;9.746;2022-08-19T07:21:35;9.20;;;7.35;;
4766;SDS011;2397;53.576;9.746;2022-08-19T07:24:01;10.33;;;8.07;;
4766;SDS011;2397;53.576;9.746;2022-08-19T07:26:29;8.57;;;7.77;;
4766;SDS011;2397;53.576;9.746;2022-08-19T07:28:55;8.50;;;7.70;;
4766;SDS011;2397;53.576;9.746;2022-08-19T07:31:22;9.57;;;8.57;;
4766;SDS011;2397;53.576;9.746;2022-08-19T07:33:48;11.30;;;8.70;;
4766;SDS011;2397;53.576;9.746;2022-08-19T07:36:15;9.97;;;8.23;;
4766;SDS011;2397;53.576;9.746;2022-08-19T07:38:43;11.43;;;8.77;;
4766;SDS011;2397;53.576;9.746;2022-08-19T07:41:09;13.20;;;9.80;;
4766;SDS011;2397;53.576;9.746;2022-08-19T07:43:36;12.60;;;10.37;;
4766;SDS011;2397;53.576;9.746;2022-08-19T07:46:01;13.63;;;10.20;;
4766;SDS011;2397;53.576;9.746;2022-08-19T07:48:26;15.00;;;10.20;;
4766;SDS011;2397;53.576;9.746;2022-08-19T07:50:52;17.00;;;11.77;;
4766;SDS011;2397;53.576;9.746;2022-08-19T07:53:19;17.33;;;11.10;;
4766;SDS011;2397;53.576;9.746;2022-08-19T07:55:44;18.83;;;11.27;;
4766;SDS011;2397;53.576;9.746;2022-08-19T07:58:13;13.30;;;10.37;;
4766;SDS011;2397;53.576;9.746;2022-08-19T08:00:39;12.77;;;11.40;;
4766;SDS011;2397;53.576;9.746;2022-08-19T08:03:05;16.00;;;9.27;;
4766;SDS011;2397;53.576;9.746;2022-08-19T08:05:30;13.93;;;10.37;;
4766;SDS011;2397;53.576;9.746;2022-08-19T08:08:14;16.43;;;9.60;;
4766;SDS011;2397;53.576;9.746;2022-08-19T08:10:58;11.80;;;10.37;;
4766;SDS011;2397;53.576;9.746;2022-08-19T08:13:24;12.30;;;10.30;;
4766;SDS011;2397;53.576;9.746;2022-08-19T08:15:49;15.30;;;10.23;;
4766;SDS011;2397;53.576;9.746;2022-08-19T08:18:14;12.90;;;11.37;;
4766;SDS011;2397;53.576;9.746;2022-08-19T08:20:39;16.52;;;10.57;;
4766;SDS011;2397;53.576;9.746;2022-08-19T08:23:05;15.63;;;11.95;;
4766;SDS011;2397;53.576;9.746;2022-08-19T08:25:50;13.97;;;11.27;;
4766;SDS011;2397;53.576;9.746;2022-08-19T08:28:16;13.40;;;10.30;;
4766;SDS011;2397;53.576;9.746;2022-08-19T08:30:41;19.60;;;12.67;;
4766;SDS011;2397;53.576;9.746;2022-08-19T08:33:08;17.10;;;13.03;;
4766;SDS011;2397;53.576;9.746;2022-08-19T08:35:33;17.00;;;11.13;;
4766;SDS011;2397;53.576;9.746;2022-08-19T08:37:59;15.80;;;11.00;;
4766;SDS011;2397;53.576;9.746;2022-08-19T08:43:29;14.73;;;11.03;;
4766;SDS011;2397;53.576;9.746;2022-08-19T08:46:09;11.73;;;10.50;;
4766;SDS011;2397;53.576;9.746;2022-08-19T08:48:54;14.73;;;10.53;;
4766;SDS011;2397;53.576;9.746;2022-08-19T08:51:36;16.50;;;11.50;;
4766;SDS011;2397;53.576;9.746;2022-08-19T08:54:08;17.47;;;10.43;;
4766;SDS011;2397;53.576;9.746;2022-08-19T08:56:34;14.37;;;11.43;;
4766;SDS011;2397;53.576;9.746;2022-08-19T08:59:03;24.23;;;12.23;;
4766;SDS011;2397;53.576;9.746;2022-08-19T09:01:32;11.73;;;10.30;;
4766;SDS011;2397;53.576;9.746;2022-08-19T09:03:57;13.47;;;10.73;;
4766;SDS011;2397;53.576;9.746;2022-08-19T09:06:29;15.53;;;10.90;;
4766;SDS011;2397;53.576;9.746;2022-08-19T09:09:04;12.17;;;10.67;;
4766;SDS011;2397;53.576;9.746;2022-08-19T09:11:40;10.63;;;9.60;;
4766;SDS011;2397;53.576;9.746;2022-08-19T09:14:15;21.13;;;12.70;;
4766;SDS011;2397;53.576;9.746;2022-08-19T09:16:41;22.30;;;12.80;;
4766;SDS011;2397;53.576;9.746;2022-08-19T09:19:07;19.15;;;12.88;;
4766;SDS011;2397;53.576;9.746;2022-08-19T09:21:33;17.40;;;11.60;;
4766;SDS011;2397;53.576;9.746;2022-08-19T09:23:59;21.10;;;12.40;;
4766;SDS011;2397;53.576;9.746;2022-08-19T09:26:25;19.40;;;13.40;;
4766;SDS011;2397;53.576;9.746;2022-08-19T09:28:51;21.17;;;13.30;;
4766;SDS011;2397;53.576;9.746;2022-08-19T09:31:18;12.40;;;11.03;;
4766;SDS011;2397;53.576;9.746;2022-08-19T09:33:43;14.20;;;12.40;;
4766;SDS011;2397;53.576;9.746;2022-08-19T09:36:09;16.40;;;12.97;;
4766;SDS011;2397;53.576;9.746;2022-08-19T09:38:35;14.80;;;11.50;;
4766;SDS011;2397;53.576;9.746;2022-08-19T09:41:02;18.03;;;12.43;;
4766;SDS011;2397;53.576;9.746;2022-08-19T09:43:27;16.87;;;10.40;;
4766;SDS011;2397;53.576;9.746;2022-08-19T09:45:53;12.27;;;10.17;;
4766;SDS011;2397;53.576;9.746;2022-08-19T09:48:18;18.83;;;13.60;;
4766;SDS011;2397;53.576;9.746;2022-08-19T09:50:43;18.73;;;13.53;;
4766;SDS011;2397;53.576;9.746;2022-08-19T09:53:08;17.00;;;13.20;;
4766;SDS011;2397;53.576;9.746;2022-08-19T09:55:33;17.60;;;13.10;;
4766;SDS011;2397;53.576;9.746;2022-08-19T09:57:59;16.23;;;11.60;;
4766;SDS011;2397;53.576;9.746;2022-08-19T10:00:25;16.43;;;12.73;;
4766;SDS011;2397;53.576;9.746;2022-08-19T10:02:51;20.70;;;12.20;;
4766;SDS011;2397;53.576;9.746;2022-08-19T10:05:16;23.77;;;13.70;;
4766;SDS011;2397;53.576;9.746;2022-08-19T10:08:00;18.87;;;14.90;;
4766;SDS011;2397;53.576;9.746;2022-08-19T10:10:25;23.20;;;14.60;;
4766;SDS011;2397;53.576;9.746;2022-08-19T10:12:51;22.17;;;16.30;;
4766;SDS011;2397;53.576;9.746;2022-08-19T10:15:16;24.60;;;17.57;;
4766;SDS011;2397;53.576;9.746;2022-08-19T10:17:45;18.47;;;15.77;;
4766;SDS011;2397;53.576;9.746;2022-08-19T10:20:11;18.53;;;16.43;;
4766;SDS011;2397;53.576;9.746;2022-08-19T10:22:36;21.30;;;14.50;;
4766;SDS011;2397;53.576;9.746;2022-08-19T10:25:02;21.50;;;16.40;;
4766;SDS011;2397;53.576;9.746;2022-08-19T10:27:27;20.50;;;15.57;;
4766;SDS011;2397;53.576;9.746;2022-08-19T10:29:52;20.40;;;14.63;;
4766;SDS011;2397;53.576;9.746;2022-08-19T10:32:18;17.43;;;15.60;;
4766;SDS011;2397;53.576;9.746;2022-08-19T10:34:43;22.80;;;14.37;;
4766;SDS011;2397;53.576;9.746;2022-08-19T10:37:08;22.43;;;15.17;;
4766;SDS011;2397;53.576;9.746;2022-08-19T10:39:34;19.00;;;15.00;;
4766;SDS011;2397;53.576;9.746;2022-08-19T10:42:04;21.33;;;14.40;;
4766;SDS011;2397;53.576;9.746;2022-08-19T10:44:29;19.13;;;16.30;;
4766;SDS011;2397;53.576;9.746;2022-08-19T10:46:55;19.50;;;14.97;;
4766;SDS011;2397;53.576;9.746;2022-08-19T10:49:20;17.53;;;15.63;;
4766;SDS011;2397;53.576;9.746;2022-08-19T10:51:45;17.00;;;14.83;;
4766;SDS011;2397;53.576;9.746;2022-08-19T10:54:29;18.77;;;14.27;;
4766;SDS011;2397;53.576;9.746;2022-08-19T10:57:13;19.30;;;15.10;;
4766;SDS011;2397;53.576;9.746;2022-08-19T10:59:39;21.23;;;15.07;;
4766;SDS011;2397;53.576;9.746;2022-08-19T11:02:06;22.93;;;14.37;;
4766;SDS011;2397;53.576;9.746;2022-08-19T11:04:32;18.97;;;15.03;;
4766;SDS011;2397;53.576;9.746;2022-08-19T11:06:58;17.70;;;15.40;;
4766;SDS011;2397;53.576;9.746;2022-08-19T11:09:24;21.30;;;16.87;;
4766;SDS011;2397;53.576;9.746;2022-08-19T11:11:50;21.83;;;16.53;;
4766;SDS011;2397;53.576;9.746;2022-08-19T11:14:16;22.07;;;17.13;;
4766;SDS011;2397;53.576;9.746;2022-08-19T11:16:43;19.63;;;16.00;;
4766;SDS011;2397;53.576;9.746;2022-08-19T11:19:09;22.67;;;16.50;;
4766;SDS011;2397;53.576;9.746;2022-08-19T11:21:36;22.80;;;18.23;;
4766;SDS011;2397;53.576;9.746;2022-08-19T11:24:06;18.07;;;16.27;;
4766;SDS011;2397;53.576;9.746;2022-08-19T11:26:32;20.13;;;17.00;;
4766;SDS011;2397;53.576;9.746;2022-08-19T11:28:58;18.47;;;16.47;;
4766;SDS011;2397;53.576;9.746;2022-08-19T11:31:24;23.00;;;15.00;;
4766;SDS011;2397;53.576;9.746;2022-08-19T11:33:50;19.03;;;15.03;;
4766;SDS011;2397;53.576;9.746;2022-08-19T11:36:18;24.20;;;16.67;;
4766;SDS011;2397;53.576;9.746;2022-08-19T11:38:45;20.03;;;16.50;;
4766;SDS011;2397;53.576;9.746;2022-08-19T11:41:13;18.40;;;15.20;;
4766;SDS011;2397;53.576;9.746;2022-08-19T11:43:38;29.53;;;15.17;;
4766;SDS011;2397;53.576;9.746;2022-08-19T11:46:07;16.10;;;14.40;;
4766;SDS011;2397;53.576;9.746;2022-08-19T11:48:33;16.83;;;15.10;;
4766;SDS011;2397;53.576;9.746;2022-08-19T11:50:59;17.73;;;15.17;;
4766;SDS011;2397;53.576;9.746;2022-08-19T11:53:24;15.30;;;13.83;;
4766;SDS011;2397;53.576;9.746;2022-08-19T11:55:49;16.30;;;14.67;;
4766;SDS011;2397;53.576;9.746;2022-08-19T11:58:15;17.00;;;14.70;;
4766;SDS011;2397;53.576;9.746;2022-08-19T12:00:41;15.37;;;13.93;;
4766;SDS011;2397;53.576;9.746;2022-08-19T12:03:06;15.60;;;14.07;;
4766;SDS011;2397;53.576;9.746;2022-08-19T12:05:31;18.33;;;16.20;;
4766;SDS011;2397;53.576;9.746;2022-08-19T12:07:57;19.57;;;17.67;;
4766;SDS011;2397;53.576;9.746;2022-08-19T12:10:22;18.03;;;16.33;;
4766;SDS011;2397;53.576;9.746;2022-08-19T12:12:48;18.00;;;16.40;;
4766;SDS011;2397;53.576;9.746;2022-08-19T12:15:13;18.87;;;16.97;;
4766;SDS011;2397;53.576;9.746;2022-08-19T12:17:39;18.83;;;16.73;;
4766;SDS011;2397;53.576;9.746;2022-08-19T12:20:05;18.60;;;16.70;;
4766;SDS011;2397;53.576;9.746;2022-08-19T12:22:31;18.70;;;16.73;;
4766;SDS011;2397;53.576;9.746;2022-08-19T12:24:56;14.93;;;13.50;;
4766;SDS011;2397;53.576;9.746;2022-08-19T12:27:22;17.07;;;15.30;;
4766;SDS011;2397;53.576;9.746;2022-08-19T12:29:47;17.50;;;15.80;;
4766;SDS011;2397;53.576;9.746;2022-08-19T12:32:12;17.43;;;15.73;;
4766;SDS011;2397;53.576;9.746;2022-08-19T12:34:37;13.73;;;12.37;;
4766;SDS011;2397;53.576;9.746;2022-08-19T12:37:03;16.70;;;14.67;;
4766;SDS011;2397;53.576;9.746;2022-08-19T12:39:29;16.87;;;14.00;;
4766;SDS011;2397;53.576;9.746;2022-08-19T12:41:56;15.40;;;13.93;;
4766;SDS011;2397;53.576;9.746;2022-08-19T12:44:22;17.53;;;14.70;;
4766;SDS011;2397;53.576;9.746;2022-08-19T12:46:47;15.33;;;13.97;;
4766;SDS011;2397;53.576;9.746;2022-08-19T12:49:13;14.17;;;12.67;;
4766;SDS011;2397;53.576;9.746;2022-08-19T12:51:39;15.90;;;14.30;;
4766;SDS011;2397;53.576;9.746;2022-08-19T12:54:04;15.90;;;14.40;;
4766;SDS011;2397;53.576;9.746;2022-08-19T12:56:29;14.30;;;12.90;;
4766;SDS011;2397;53.576;9.746;2022-08-19T12:58:56;16.73;;;13.37;;
4766;SDS011;2397;53.576;9.746;2022-08-19T13:01:21;16.00;;;13.23;;
4766;SDS011;2397;53.576;9.746;2022-08-19T13:03:46;14.93;;;13.53;;
4766;SDS011;2397;53.576;9.746;2022-08-19T13:06:12;14.67;;;13.17;;
4766;SDS011;2397;53.576;9.746;2022-08-19T13:08:37;14.80;;;13.40;;
4766;SDS011;2397;53.576;9.746;2022-08-19T13:11:07;19.10;;;17.20;;
4766;SDS011;2397;53.576;9.746;2022-08-19T13:13:32;20.80;;;16.50;;
4766;SDS011;2397;53.576;9.746;2022-08-19T13:16:00;16.23;;;14.60;;
4766;SDS011;2397;53.576;9.746;2022-08-19T13:18:26;16.43;;;14.73;;
4766;SDS011;2397;53.576;9.746;2022-08-19T13:20:52;16.33;;;13.13;;
4766;SDS011;2397;53.576;9.746;2022-08-19T13:23:17;16.40;;;14.90;;
4766;SDS011;2397;53.576;9.746;2022-08-19T13:25:43;16.00;;;14.50;;
4766;SDS011;2397;53.576;9.746;2022-08-19T13:28:08;15.27;;;13.80;;
4766;SDS011;2397;53.576;9.746;2022-08-19T13:30:33;15.17;;;13.70;;
4766;SDS011;2397;53.576;9.746;2022-08-19T13:33:17;16.30;;;14.70;;
4766;SDS011;2397;53.576;9.746;2022-08-19T13:38:10;15.03;;;13.53;;
4766;SDS011;2397;53.576;9.746;2022-08-19T13:40:36;14.00;;;12.70;;
4766;SDS011;2397;53.576;9.746;2022-08-19T13:43:02;13.07;;;11.83;;
4766;SDS011;2397;53.576;9.746;2022-08-19T13:45:28;12.83;;;11.73;;
4766;SDS011;2397;53.576;9.746;2022-08-19T13:47:54;13.07;;;11.70;;
4766;SDS011;2397;53.576;9.746;2022-08-19T13:50:21;12.90;;;11.67;;
4766;SDS011;2397;53.576;9.746;2022-08-19T13:52:47;11.47;;;10.57;;
4766;SDS011;2397;53.576;9.746;2022-08-19T13:55:13;11.23;;;9.70;;
4766;SDS011;2397;53.576;9.746;2022-08-19T13:57:39;10.83;;;9.67;;
4766;SDS011;2397;53.576;9.746;2022-08-19T14:00:09;9.60;;;8.90;;
4766;SDS011;2397;53.576;9.746;2022-08-19T14:02:38;10.27;;;9.27;;
4766;SDS011;2397;53.576;9.746;2022-08-19T14:05:04;8.80;;;8.10;;
4766;SDS011;2397;53.576;9.746;2022-08-19T14:07:30;10.20;;;9.40;;
4766;SDS011;2397;53.576;9.746;2022-08-19T14:09:55;9.77;;;9.07;;
4766;SDS011;2397;53.576;9.746;2022-08-19T14:12:20;9.98;;;8.30;;
4766;SDS011;2397;53.576;9.746;2022-08-19T14:14:45;9.17;;;8.37;;
4766;SDS011;2397;53.576;9.746;2022-08-19T14:17:10;11.00;;;9.97;;
4766;SDS011;2397;53.576;9.746;2022-08-19T14:19:35;14.50;;;9.83;;
4766;SDS011;2397;53.576;9.746;2022-08-19T14:22:01;10.10;;;9.30;;
4766;SDS011;2397;53.576;9.746;2022-08-19T14:24:27;10.90;;;9.90;;
4766;SDS011;2397;53.576;9.746;2022-08-19T14:26:52;9.27;;;8.57;;
4766;SDS011;2397;53.576;9.746;2022-08-19T14:29:17;9.00;;;8.27;;
4766;SDS011;2397;53.576;9.746;2022-08-19T14:31:42;9.70;;;9.00;;
4766;SDS011;2397;53.576;9.746;2022-08-19T14:34:09;10.27;;;9.47;;
4766;SDS011;2397;53.576;9.746;2022-08-19T14:36:35;10.13;;;9.20;;
4766;SDS011;2397;53.576;9.746;2022-08-19T14:39:00;10.07;;;9.17;;
4766;SDS011;2397;53.576;9.746;2022-08-19T14:41:25;7.73;;;7.23;;
4766;SDS011;2397;53.576;9.746;2022-08-19T14:43:52;9.47;;;8.67;;
4766;SDS011;2397;53.576;9.746;2022-08-19T14:46:18;8.23;;;7.53;;
4766;SDS011;2397;53.576;9.746;2022-08-19T14:48:45;8.87;;;7.97;;
4766;SDS011;2397;53.576;9.746;2022-08-19T14:51:11;7.83;;;7.20;;
4766;SDS011;2397;53.576;9.746;2022-08-19T14:53:36;7.77;;;7.17;;
4766;SDS011;2397;53.576;9.746;2022-08-19T14:56:01;9.17;;;8.47;;